sensor_id;sensor_type;location;lat;lon;timestamp;P1;durP1;ratioP1;P2;durP2;ratioP2
1987;SDS011;12775;46.994;15.498;2022-07-23T00:01:54;10.44;;;9.64;;
1987;SDS011;12775;46.994;15.498;2022-07-23T00:04:21;10.28;;;9.44;;
1987;SDS011;12775;46.994;15.498;2022-07-23T00:06:48;10.24;;;9.26;;
1987;SDS011;12775;46.994;15.498;2022-07-23T00:09:16;9.52;;;8.72;;
1987;SDS011;12775;46.994;15.498;2022-07-23T00:11:43;9.54;;;8.74;;
1987;SDS011;12775;46.994;15.498;2022-07-23T00:14:10;9.34;;;8.64;;
1987;SDS011;12775;46.994;15.498;2022-07-23T00:16:38;10.20;;;9.40;;
1987;SDS011;12775;46.994;15.498;2022-07-23T00:19:05;9.38;;;8.64;;
1987;SDS011;12775;46.994;15.498;2022-07-23T00:21:33;9.80;;;9.06;;
1987;SDS011;12775;46.994;15.498;2022-07-23T00:24:00;9.76;;;8.96;;
1987;SDS011;12775;46.994;15.498;2022-07-23T00:26:27;9.80;;;9.08;;
1987;SDS011;12775;46.994;15.498;2022-07-23T00:28:55;8.86;;;8.16;;
1987;SDS011;12775;46.994;15.498;2022-07-23T00:31:22;9.38;;;8.68;;
1987;SDS011;12775;46.994;15.498;2022-07-23T00:33:49;9.34;;;8.44;;
1987;SDS011;12775;46.994;15.498;2022-07-23T00:36:17;8.98;;;8.20;;
1987;SDS011;12775;46.994;15.498;2022-07-23T00:38:44;10.88;;;8.84;;
1987;SDS011;12775;46.994;15.498;2022-07-23T00:41:11;8.38;;;7.54;;
1987;SDS011;12775;46.994;15.498;2022-07-23T00:43:38;9.52;;;8.80;;
1987;SDS011;12775;46.994;15.498;2022-07-23T00:46:05;8.78;;;7.84;;
1987;SDS011;12775;46.994;15.498;2022-07-23T00:48:33;8.72;;;8.02;;
1987;SDS011;12775;46.994;15.498;2022-07-23T00:51:00;10.00;;;9.20;;
1987;SDS011;12775;46.994;15.498;2022-07-23T00:53:28;9.38;;;8.58;;
1987;SDS011;12775;46.994;15.498;2022-07-23T00:55:55;10.38;;;9.48;;
1987;SDS011;12775;46.994;15.498;2022-07-23T00:58:22;8.28;;;7.66;;
1987;SDS011;12775;46.994;15.498;2022-07-23T01:00:50;9.80;;;9.10;;
1987;SDS011;12775;46.994;15.498;2022-07-23T01:03:17;9.26;;;8.48;;
1987;SDS011;12775;46.994;15.498;2022-07-23T01:05:44;9.14;;;8.44;;
1987;SDS011;12775;46.994;15.498;2022-07-23T01:08:12;10.08;;;9.20;;
1987;SDS011;12775;46.994;15.498;2022-07-23T01:10:39;9.26;;;8.46;;
1987;SDS011;12775;46.994;15.498;2022-07-23T01:13:07;8.72;;;8.10;;
1987;SDS011;12775;46.994;15.498;2022-07-23T01:15:34;10.18;;;9.24;;
1987;SDS011;12775;46.994;15.498;2022-07-23T01:18:02;9.68;;;8.88;;
1987;SDS011;12775;46.994;15.498;2022-07-23T01:20:29;10.22;;;9.42;;
1987;SDS011;12775;46.994;15.498;2022-07-23T01:22:55;10.00;;;9.28;;
1987;SDS011;12775;46.994;15.498;2022-07-23T01:25:22;10.34;;;9.50;;
1987;SDS011;12775;46.994;15.498;2022-07-23T01:27:48;9.34;;;8.66;;
1987;SDS011;12775;46.994;15.498;2022-07-23T01:30:15;8.64;;;7.96;;
1987;SDS011;12775;46.994;15.498;2022-07-23T01:32:42;10.26;;;9.46;;
1987;SDS011;12775;46.994;15.498;2022-07-23T01:35:08;11.42;;;10.40;;
1987;SDS011;12775;46.994;15.498;2022-07-23T01:37:35;10.12;;;9.30;;
1987;SDS011;12775;46.994;15.498;2022-07-23T01:40:01;9.80;;;9.02;;
1987;SDS011;12775;46.994;15.498;2022-07-23T01:42:28;10.64;;;9.94;;
1987;SDS011;12775;46.994;15.498;2022-07-23T01:44:55;12.00;;;11.00;;
1987;SDS011;12775;46.994;15.498;2022-07-23T01:47:22;10.90;;;10.00;;
1987;SDS011;12775;46.994;15.498;2022-07-23T01:49:49;10.52;;;9.72;;
1987;SDS011;12775;46.994;15.498;2022-07-23T01:52:15;11.32;;;10.52;;
1987;SDS011;12775;46.994;15.498;2022-07-23T01:54:43;10.90;;;10.06;;
1987;SDS011;12775;46.994;15.498;2022-07-23T01:57:10;10.92;;;10.12;;
1987;SDS011;12775;46.994;15.498;2022-07-23T01:59:37;10.62;;;9.62;;
1987;SDS011;12775;46.994;15.498;2022-07-23T02:02:03;10.92;;;10.04;;
1987;SDS011;12775;46.994;15.498;2022-07-23T02:04:30;9.66;;;8.96;;
1987;SDS011;12775;46.994;15.498;2022-07-23T02:06:56;11.44;;;10.48;;
1987;SDS011;12775;46.994;15.498;2022-07-23T02:09:23;9.96;;;9.26;;
1987;SDS011;12775;46.994;15.498;2022-07-23T02:11:50;10.44;;;9.58;;
1987;SDS011;12775;46.994;15.498;2022-07-23T02:14:16;9.14;;;8.34;;
1987;SDS011;12775;46.994;15.498;2022-07-23T02:16:44;9.84;;;9.04;;
1987;SDS011;12775;46.994;15.498;2022-07-23T02:19:10;11.28;;;9.20;;
1987;SDS011;12775;46.994;15.498;2022-07-23T02:21:37;9.02;;;8.42;;
1987;SDS011;12775;46.994;15.498;2022-07-23T02:24:04;10.82;;;9.70;;
1987;SDS011;12775;46.994;15.498;2022-07-23T02:26:31;9.30;;;8.50;;
1987;SDS011;12775;46.994;15.498;2022-07-23T02:28:58;9.76;;;8.96;;
1987;SDS011;12775;46.994;15.498;2022-07-23T02:31:25;8.70;;;8.10;;
1987;SDS011;12775;46.994;15.498;2022-07-23T02:33:51;9.30;;;8.70;;
1987;SDS011;12775;46.994;15.498;2022-07-23T02:36:18;9.34;;;8.64;;
1987;SDS011;12775;46.994;15.498;2022-07-23T02:38:44;10.52;;;9.66;;
1987;SDS011;12775;46.994;15.498;2022-07-23T02:41:11;11.52;;;10.42;;
1987;SDS011;12775;46.994;15.498;2022-07-23T02:43:38;9.36;;;8.60;;
1987;SDS011;12775;46.994;15.498;2022-07-23T02:46:05;10.40;;;9.60;;
1987;SDS011;12775;46.994;15.498;2022-07-23T02:48:31;9.32;;;8.52;;
1987;SDS011;12775;46.994;15.498;2022-07-23T02:50:58;10.30;;;9.56;;
1987;SDS011;12775;46.994;15.498;2022-07-23T02:53:25;11.34;;;10.54;;
1987;SDS011;12775;46.994;15.498;2022-07-23T02:55:51;10.78;;;9.88;;
1987;SDS011;12775;46.994;15.498;2022-07-23T02:58:18;9.98;;;9.26;;
1987;SDS011;12775;46.994;15.498;2022-07-23T03:00:44;10.36;;;9.56;;
1987;SDS011;12775;46.994;15.498;2022-07-23T03:03:11;9.68;;;8.94;;
1987;SDS011;12775;46.994;15.498;2022-07-23T03:05:38;15.76;;;10.18;;
1987;SDS011;12775;46.994;15.498;2022-07-23T03:08:04;11.78;;;10.78;;
1987;SDS011;12775;46.994;15.498;2022-07-23T03:10:31;9.30;;;8.58;;
1987;SDS011;12775;46.994;15.498;2022-07-23T03:12:57;9.64;;;9.02;;
1987;SDS011;12775;46.994;15.498;2022-07-23T03:15:24;9.94;;;9.08;;
1987;SDS011;12775;46.994;15.498;2022-07-23T03:17:51;9.50;;;8.80;;
1987;SDS011;12775;46.994;15.498;2022-07-23T03:20:17;11.36;;;10.56;;
1987;SDS011;12775;46.994;15.498;2022-07-23T03:22:44;12.66;;;10.74;;
1987;SDS011;12775;46.994;15.498;2022-07-23T03:25:10;10.98;;;9.98;;
1987;SDS011;12775;46.994;15.498;2022-07-23T03:27:37;10.28;;;9.48;;
1987;SDS011;12775;46.994;15.498;2022-07-23T03:30:04;11.18;;;10.34;;
1987;SDS011;12775;46.994;15.498;2022-07-23T03:32:31;9.74;;;9.02;;
1987;SDS011;12775;46.994;15.498;2022-07-23T03:34:57;9.98;;;9.12;;
1987;SDS011;12775;46.994;15.498;2022-07-23T03:37:24;9.42;;;8.72;;
1987;SDS011;12775;46.994;15.498;2022-07-23T03:39:51;9.40;;;8.80;;
1987;SDS011;12775;46.994;15.498;2022-07-23T03:42:17;11.52;;;10.70;;
1987;SDS011;12775;46.994;15.498;2022-07-23T03:44:44;10.80;;;9.92;;
1987;SDS011;12775;46.994;15.498;2022-07-23T03:47:11;11.18;;;10.30;;
1987;SDS011;12775;46.994;15.498;2022-07-23T03:49:37;10.26;;;9.44;;
1987;SDS011;12775;46.994;15.498;2022-07-23T03:52:04;10.60;;;9.84;;
1987;SDS011;12775;46.994;15.498;2022-07-23T03:54:30;10.98;;;10.16;;
1987;SDS011;12775;46.994;15.498;2022-07-23T03:56:57;10.96;;;10.18;;
1987;SDS011;12775;46.994;15.498;2022-07-23T03:59:24;11.12;;;10.16;;
1987;SDS011;12775;46.994;15.498;2022-07-23T04:01:50;11.58;;;10.58;;
1987;SDS011;12775;46.994;15.498;2022-07-23T04:04:17;12.36;;;11.46;;
1987;SDS011;12775;46.994;15.498;2022-07-23T04:06:43;10.98;;;10.04;;
1987;SDS011;12775;46.994;15.498;2022-07-23T04:09:10;10.66;;;9.64;;
1987;SDS011;12775;46.994;15.498;2022-07-23T04:11:37;11.94;;;10.88;;
1987;SDS011;12775;46.994;15.498;2022-07-23T04:14:03;10.92;;;10.02;;
1987;SDS011;12775;46.994;15.498;2022-07-23T04:16:30;12.82;;;11.58;;
1987;SDS011;12775;46.994;15.498;2022-07-23T04:18:57;13.60;;;12.42;;
1987;SDS011;12775;46.994;15.498;2022-07-23T04:21:23;12.88;;;11.70;;
1987;SDS011;12775;46.994;15.498;2022-07-23T04:23:50;13.48;;;12.16;;
1987;SDS011;12775;46.994;15.498;2022-07-23T04:26:16;13.94;;;12.74;;
1987;SDS011;12775;46.994;15.498;2022-07-23T04:28:43;13.30;;;12.30;;
1987;SDS011;12775;46.994;15.498;2022-07-23T04:31:10;14.34;;;13.14;;
1987;SDS011;12775;46.994;15.498;2022-07-23T04:33:36;14.74;;;13.24;;
1987;SDS011;12775;46.994;15.498;2022-07-23T04:36:03;13.72;;;12.58;;
1987;SDS011;12775;46.994;15.498;2022-07-23T04:38:30;14.50;;;13.30;;
1987;SDS011;12775;46.994;15.498;2022-07-23T04:40:56;14.44;;;13.32;;
1987;SDS011;12775;46.994;15.498;2022-07-23T04:43:23;14.86;;;13.76;;
1987;SDS011;12775;46.994;15.498;2022-07-23T04:45:50;16.20;;;14.78;;
1987;SDS011;12775;46.994;15.498;2022-07-23T04:48:16;15.94;;;14.74;;
1987;SDS011;12775;46.994;15.498;2022-07-23T04:50:44;16.62;;;15.40;;
1987;SDS011;12775;46.994;15.498;2022-07-23T04:53:11;15.70;;;14.50;;
1987;SDS011;12775;46.994;15.498;2022-07-23T04:55:38;15.58;;;14.22;;
1987;SDS011;12775;46.994;15.498;2022-07-23T04:58:04;16.02;;;14.72;;
1987;SDS011;12775;46.994;15.498;2022-07-23T05:00:31;16.00;;;14.58;;
1987;SDS011;12775;46.994;15.498;2022-07-23T05:02:58;15.26;;;14.06;;
1987;SDS011;12775;46.994;15.498;2022-07-23T05:05:25;14.70;;;13.60;;
1987;SDS011;12775;46.994;15.498;2022-07-23T05:07:51;15.38;;;14.08;;
1987;SDS011;12775;46.994;15.498;2022-07-23T05:10:18;14.88;;;13.82;;
1987;SDS011;12775;46.994;15.498;2022-07-23T05:12:44;15.08;;;13.98;;
1987;SDS011;12775;46.994;15.498;2022-07-23T05:15:11;16.50;;;15.12;;
1987;SDS011;12775;46.994;15.498;2022-07-23T05:17:38;14.76;;;13.66;;
1987;SDS011;12775;46.994;15.498;2022-07-23T05:20:04;14.80;;;13.70;;
1987;SDS011;12775;46.994;15.498;2022-07-23T05:22:31;14.40;;;13.40;;
1987;SDS011;12775;46.994;15.498;2022-07-23T05:24:58;15.14;;;13.94;;
1987;SDS011;12775;46.994;15.498;2022-07-23T05:27:25;15.94;;;14.76;;
1987;SDS011;12775;46.994;15.498;2022-07-23T05:29:51;15.00;;;13.76;;
1987;SDS011;12775;46.994;15.498;2022-07-23T05:32:18;14.40;;;13.30;;
1987;SDS011;12775;46.994;15.498;2022-07-23T05:34:44;13.46;;;12.34;;
1987;SDS011;12775;46.994;15.498;2022-07-23T05:37:11;14.00;;;12.66;;
1987;SDS011;12775;46.994;15.498;2022-07-23T05:39:38;15.46;;;14.12;;
1987;SDS011;12775;46.994;15.498;2022-07-23T05:42:06;14.60;;;13.40;;
1987;SDS011;12775;46.994;15.498;2022-07-23T05:44:33;14.16;;;13.08;;
1987;SDS011;12775;46.994;15.498;2022-07-23T05:47:00;14.28;;;13.16;;
1987;SDS011;12775;46.994;15.498;2022-07-23T05:49:26;14.56;;;13.46;;
1987;SDS011;12775;46.994;15.498;2022-07-23T05:51:53;13.86;;;12.84;;
1987;SDS011;12775;46.994;15.498;2022-07-23T05:54:20;15.26;;;14.04;;
1987;SDS011;12775;46.994;15.498;2022-07-23T05:56:47;13.32;;;12.10;;
1987;SDS011;12775;46.994;15.498;2022-07-23T05:59:14;13.24;;;12.34;;
1987;SDS011;12775;46.994;15.498;2022-07-23T06:01:40;14.26;;;13.22;;
1987;SDS011;12775;46.994;15.498;2022-07-23T06:04:07;14.76;;;13.38;;
1987;SDS011;12775;46.994;15.498;2022-07-23T06:06:33;15.24;;;14.04;;
1987;SDS011;12775;46.994;15.498;2022-07-23T06:09:00;15.00;;;13.80;;
1987;SDS011;12775;46.994;15.498;2022-07-23T06:11:27;14.26;;;13.16;;
1987;SDS011;12775;46.994;15.498;2022-07-23T06:13:54;13.78;;;12.58;;
1987;SDS011;12775;46.994;15.498;2022-07-23T06:16:21;14.66;;;13.66;;
1987;SDS011;12775;46.994;15.498;2022-07-23T06:18:49;13.08;;;12.08;;
1987;SDS011;12775;46.994;15.498;2022-07-23T06:21:17;15.74;;;14.22;;
1987;SDS011;12775;46.994;15.498;2022-07-23T06:23:44;14.40;;;13.16;;
1987;SDS011;12775;46.994;15.498;2022-07-23T06:26:12;14.86;;;13.66;;
1987;SDS011;12775;46.994;15.498;2022-07-23T06:28:39;14.56;;;13.46;;
1987;SDS011;12775;46.994;15.498;2022-07-23T06:31:06;14.94;;;13.80;;
1987;SDS011;12775;46.994;15.498;2022-07-23T06:33:34;14.76;;;13.60;;
1987;SDS011;12775;46.994;15.498;2022-07-23T06:36:01;14.90;;;13.80;;
1987;SDS011;12775;46.994;15.498;2022-07-23T06:38:29;14.30;;;13.20;;
1987;SDS011;12775;46.994;15.498;2022-07-23T06:40:56;13.72;;;12.52;;
1987;SDS011;12775;46.994;15.498;2022-07-23T06:43:24;13.68;;;12.78;;
1987;SDS011;12775;46.994;15.498;2022-07-23T06:45:51;14.74;;;13.70;;
1987;SDS011;12775;46.994;15.498;2022-07-23T06:48:18;14.00;;;13.00;;
1987;SDS011;12775;46.994;15.498;2022-07-23T06:50:46;14.22;;;12.86;;
1987;SDS011;12775;46.994;15.498;2022-07-23T06:53:13;15.40;;;14.18;;
1987;SDS011;12775;46.994;15.498;2022-07-23T06:55:40;14.86;;;13.70;;
1987;SDS011;12775;46.994;15.498;2022-07-23T06:58:08;14.86;;;13.86;;
1987;SDS011;12775;46.994;15.498;2022-07-23T07:00:35;14.36;;;13.26;;
1987;SDS011;12775;46.994;15.498;2022-07-23T07:03:03;14.54;;;13.42;;
1987;SDS011;12775;46.994;15.498;2022-07-23T07:05:30;15.40;;;14.26;;
1987;SDS011;12775;46.994;15.498;2022-07-23T07:07:57;13.54;;;12.60;;
1987;SDS011;12775;46.994;15.498;2022-07-23T07:10:25;13.96;;;12.88;;
1987;SDS011;12775;46.994;15.498;2022-07-23T07:12:52;14.02;;;13.02;;
1987;SDS011;12775;46.994;15.498;2022-07-23T07:15:19;13.04;;;12.04;;
1987;SDS011;12775;46.994;15.498;2022-07-23T07:17:47;14.82;;;13.62;;
1987;SDS011;12775;46.994;15.498;2022-07-23T07:20:15;14.76;;;13.70;;
1987;SDS011;12775;46.994;15.498;2022-07-23T07:22:42;13.64;;;12.64;;
1987;SDS011;12775;46.994;15.498;2022-07-23T07:25:09;15.72;;;12.64;;
1987;SDS011;12775;46.994;15.498;2022-07-23T07:27:37;14.20;;;12.78;;
1987;SDS011;12775;46.994;15.498;2022-07-23T07:30:04;13.96;;;12.92;;
1987;SDS011;12775;46.994;15.498;2022-07-23T07:32:33;13.12;;;11.96;;
1987;SDS011;12775;46.994;15.498;2022-07-23T07:35:00;13.40;;;12.50;;
1987;SDS011;12775;46.994;15.498;2022-07-23T07:37:27;14.22;;;13.12;;
1987;SDS011;12775;46.994;15.498;2022-07-23T07:39:55;12.22;;;11.32;;
1987;SDS011;12775;46.994;15.498;2022-07-23T07:42:21;13.34;;;12.44;;
1987;SDS011;12775;46.994;15.498;2022-07-23T07:44:48;12.84;;;11.84;;
1987;SDS011;12775;46.994;15.498;2022-07-23T07:47:14;14.08;;;12.98;;
1987;SDS011;12775;46.994;15.498;2022-07-23T07:49:42;12.98;;;11.88;;
1987;SDS011;12775;46.994;15.498;2022-07-23T07:52:10;13.30;;;12.30;;
1987;SDS011;12775;46.994;15.498;2022-07-23T07:54:37;13.40;;;12.40;;
1987;SDS011;12775;46.994;15.498;2022-07-23T07:57:04;13.30;;;12.30;;
1987;SDS011;12775;46.994;15.498;2022-07-23T07:59:30;12.94;;;11.96;;
1987;SDS011;12775;46.994;15.498;2022-07-23T08:01:57;14.00;;;12.90;;
1987;SDS011;12775;46.994;15.498;2022-07-23T08:04:23;13.26;;;12.16;;
1987;SDS011;12775;46.994;15.498;2022-07-23T08:06:50;13.30;;;12.34;;
1987;SDS011;12775;46.994;15.498;2022-07-23T08:09:17;14.32;;;13.20;;
1987;SDS011;12775;46.994;15.498;2022-07-23T08:11:44;12.10;;;11.22;;
1987;SDS011;12775;46.994;15.498;2022-07-23T08:14:11;13.44;;;12.58;;
1987;SDS011;12775;46.994;15.498;2022-07-23T08:16:39;12.50;;;11.54;;
1987;SDS011;12775;46.994;15.498;2022-07-23T08:19:05;12.54;;;11.54;;
1987;SDS011;12775;46.994;15.498;2022-07-23T08:21:32;11.78;;;10.98;;
1987;SDS011;12775;46.994;15.498;2022-07-23T08:23:59;13.22;;;11.28;;
1987;SDS011;12775;46.994;15.498;2022-07-23T08:26:25;13.20;;;12.20;;
1987;SDS011;12775;46.994;15.498;2022-07-23T08:28:52;13.32;;;12.42;;
1987;SDS011;12775;46.994;15.498;2022-07-23T08:31:19;12.30;;;11.30;;
1987;SDS011;12775;46.994;15.498;2022-07-23T08:33:46;12.80;;;11.80;;
1987;SDS011;12775;46.994;15.498;2022-07-23T08:36:13;12.60;;;11.60;;
1987;SDS011;12775;46.994;15.498;2022-07-23T08:38:39;12.58;;;11.68;;
1987;SDS011;12775;46.994;15.498;2022-07-23T08:41:06;12.02;;;11.22;;
1987;SDS011;12775;46.994;15.498;2022-07-23T08:43:32;11.92;;;10.96;;
1987;SDS011;12775;46.994;15.498;2022-07-23T08:46:00;12.38;;;11.48;;
1987;SDS011;12775;46.994;15.498;2022-07-23T08:48:30;13.30;;;12.42;;
1987;SDS011;12775;46.994;15.498;2022-07-23T08:50:56;12.48;;;11.48;;
1987;SDS011;12775;46.994;15.498;2022-07-23T08:53:23;13.46;;;12.44;;
1987;SDS011;12775;46.994;15.498;2022-07-23T08:55:51;13.04;;;12.14;;
1987;SDS011;12775;46.994;15.498;2022-07-23T08:58:16;13.12;;;12.22;;
1987;SDS011;12775;46.994;15.498;2022-07-23T09:00:43;12.10;;;11.30;;
1987;SDS011;12775;46.994;15.498;2022-07-23T09:03:15;12.44;;;11.44;;
1987;SDS011;12775;46.994;15.498;2022-07-23T09:05:41;13.44;;;12.04;;
1987;SDS011;12775;46.994;15.498;2022-07-23T09:08:10;12.56;;;11.56;;
1987;SDS011;12775;46.994;15.498;2022-07-23T09:10:43;12.82;;;11.90;;
1987;SDS011;12775;46.994;15.498;2022-07-23T09:15:49;13.54;;;12.44;;
1987;SDS011;12775;46.994;15.498;2022-07-23T09:18:16;13.38;;;12.38;;
1987;SDS011;12775;46.994;15.498;2022-07-23T09:20:43;14.20;;;13.08;;
1987;SDS011;12775;46.994;15.498;2022-07-23T09:23:09;13.16;;;12.26;;
1987;SDS011;12775;46.994;15.498;2022-07-23T09:25:37;12.38;;;11.42;;
1987;SDS011;12775;46.994;15.498;2022-07-23T09:28:04;13.34;;;12.30;;
1987;SDS011;12775;46.994;15.498;2022-07-23T09:30:31;12.06;;;11.26;;
1987;SDS011;12775;46.994;15.498;2022-07-23T09:33:04;13.24;;;12.24;;
1987;SDS011;12775;46.994;15.498;2022-07-23T09:38:08;11.16;;;10.26;;
1987;SDS011;12775;46.994;15.498;2022-07-23T09:40:34;11.46;;;10.62;;
1987;SDS011;12775;46.994;15.498;2022-07-23T09:43:01;10.22;;;9.50;;
1987;SDS011;12775;46.994;15.498;2022-07-23T09:45:28;10.42;;;9.72;;
1987;SDS011;12775;46.994;15.498;2022-07-23T09:50:34;11.22;;;10.06;;
1987;SDS011;12775;46.994;15.498;2022-07-23T09:53:01;10.50;;;9.68;;
1987;SDS011;12775;46.994;15.498;2022-07-23T09:55:31;10.68;;;9.80;;
1987;SDS011;12775;46.994;15.498;2022-07-23T09:58:05;10.88;;;10.10;;
1987;SDS011;12775;46.994;15.498;2022-07-23T10:00:32;11.86;;;10.86;;
1987;SDS011;12775;46.994;15.498;2022-07-23T10:02:58;11.22;;;10.42;;
1987;SDS011;12775;46.994;15.498;2022-07-23T10:05:25;10.66;;;9.96;;
1987;SDS011;12775;46.994;15.498;2022-07-23T10:07:52;10.78;;;9.90;;
1987;SDS011;12775;46.994;15.498;2022-07-23T10:10:19;10.42;;;9.72;;
1987;SDS011;12775;46.994;15.498;2022-07-23T10:12:46;10.38;;;9.68;;
1987;SDS011;12775;46.994;15.498;2022-07-23T10:15:24;8.54;;;8.04;;
1987;SDS011;12775;46.994;15.498;2022-07-23T10:17:50;10.34;;;9.42;;
1987;SDS011;12775;46.994;15.498;2022-07-23T10:20:17;9.30;;;8.70;;
1987;SDS011;12775;46.994;15.498;2022-07-23T10:22:47;10.78;;;9.92;;
1987;SDS011;12775;46.994;15.498;2022-07-23T10:28:00;9.10;;;8.40;;
1987;SDS011;12775;46.994;15.498;2022-07-23T10:33:26;9.56;;;8.86;;
1987;SDS011;12775;46.994;15.498;2022-07-23T10:35:53;10.34;;;9.34;;
1987;SDS011;12775;46.994;15.498;2022-07-23T10:38:24;9.42;;;8.74;;
1987;SDS011;12775;46.994;15.498;2022-07-23T10:40:53;9.68;;;9.02;;
1987;SDS011;12775;46.994;15.498;2022-07-23T10:43:18;10.64;;;9.90;;
1987;SDS011;12775;46.994;15.498;2022-07-23T10:45:45;11.10;;;10.30;;
1987;SDS011;12775;46.994;15.498;2022-07-23T10:48:13;11.18;;;10.38;;
1987;SDS011;12775;46.994;15.498;2022-07-23T10:50:41;11.28;;;10.48;;
1987;SDS011;12775;46.994;15.498;2022-07-23T10:53:09;11.20;;;10.46;;
1987;SDS011;12775;46.994;15.498;2022-07-23T10:55:43;11.38;;;10.58;;
1987;SDS011;12775;46.994;15.498;2022-07-23T10:58:11;10.40;;;9.60;;
1987;SDS011;12775;46.994;15.498;2022-07-23T11:00:37;10.92;;;10.10;;
1987;SDS011;12775;46.994;15.498;2022-07-23T11:03:05;11.94;;;11.04;;
1987;SDS011;12775;46.994;15.498;2022-07-23T11:10:49;10.34;;;9.66;;
1987;SDS011;12775;46.994;15.498;2022-07-23T11:13:29;10.44;;;9.70;;
1987;SDS011;12775;46.994;15.498;2022-07-23T11:16:15;10.64;;;9.98;;
1987;SDS011;12775;46.994;15.498;2022-07-23T11:18:57;10.36;;;9.66;;
1987;SDS011;12775;46.994;15.498;2022-07-23T11:24:07;9.82;;;9.22;;
1987;SDS011;12775;46.994;15.498;2022-07-23T11:32:08;10.16;;;9.46;;
1987;SDS011;12775;46.994;15.498;2022-07-23T11:34:49;10.66;;;9.86;;
1987;SDS011;12775;46.994;15.498;2022-07-23T11:39:57;10.72;;;10.02;;
1987;SDS011;12775;46.994;15.498;2022-07-23T11:42:24;11.34;;;10.64;;
1987;SDS011;12775;46.994;15.498;2022-07-23T11:44:50;10.38;;;9.68;;
1987;SDS011;12775;46.994;15.498;2022-07-23T11:47:21;10.72;;;9.92;;
1987;SDS011;12775;46.994;15.498;2022-07-23T11:52:20;10.76;;;10.06;;
1987;SDS011;12775;46.994;15.498;2022-07-23T11:54:54;10.18;;;9.36;;
1987;SDS011;12775;46.994;15.498;2022-07-23T11:57:24;11.10;;;10.34;;
1987;SDS011;12775;46.994;15.498;2022-07-23T11:59:51;11.38;;;10.62;;
1987;SDS011;12775;46.994;15.498;2022-07-23T12:02:16;10.64;;;9.94;;
1987;SDS011;12775;46.994;15.498;2022-07-23T12:04:44;10.64;;;9.70;;
1987;SDS011;12775;46.994;15.498;2022-07-23T12:09:49;10.32;;;9.66;;
1987;SDS011;12775;46.994;15.498;2022-07-23T12:12:15;10.60;;;9.88;;
1987;SDS011;12775;46.994;15.498;2022-07-23T12:17:18;10.92;;;10.12;;
1987;SDS011;12775;46.994;15.498;2022-07-23T12:19:45;10.80;;;10.02;;
1987;SDS011;12775;46.994;15.498;2022-07-23T12:22:11;12.34;;;11.44;;
1987;SDS011;12775;46.994;15.498;2022-07-23T12:27:19;12.48;;;11.68;;
1987;SDS011;12775;46.994;15.498;2022-07-23T12:29:43;11.34;;;10.58;;
1987;SDS011;12775;46.994;15.498;2022-07-23T12:32:18;9.64;;;9.04;;
1987;SDS011;12775;46.994;15.498;2022-07-23T12:34:44;8.88;;;8.28;;
1987;SDS011;12775;46.994;15.498;2022-07-23T12:39:49;9.96;;;9.26;;
1987;SDS011;12775;46.994;15.498;2022-07-23T12:42:16;10.50;;;9.64;;
1987;SDS011;12775;46.994;15.498;2022-07-23T12:45:02;10.66;;;9.86;;
1987;SDS011;12775;46.994;15.498;2022-07-23T12:47:09;11.40;;;10.70;;
1987;SDS011;12775;46.994;15.498;2022-07-23T12:49:36;9.96;;;9.26;;
1987;SDS011;12775;46.994;15.498;2022-07-23T12:52:14;11.18;;;10.38;;
1987;SDS011;12775;46.994;15.498;2022-07-23T12:54:29;10.12;;;9.42;;
1987;SDS011;12775;46.994;15.498;2022-07-23T12:56:55;10.62;;;9.90;;
1987;SDS011;12775;46.994;15.498;2022-07-23T12:59:22;10.46;;;9.44;;
1987;SDS011;12775;46.994;15.498;2022-07-23T13:01:54;10.40;;;9.74;;
1987;SDS011;12775;46.994;15.498;2022-07-23T13:04:21;11.64;;;10.14;;
1987;SDS011;12775;46.994;15.498;2022-07-23T13:06:48;10.28;;;9.28;;
1987;SDS011;12775;46.994;15.498;2022-07-23T13:09:18;11.40;;;10.52;;
1987;SDS011;12775;46.994;15.498;2022-07-23T13:11:45;12.02;;;10.90;;
1987;SDS011;12775;46.994;15.498;2022-07-23T13:14:11;11.42;;;10.50;;
1987;SDS011;12775;46.994;15.498;2022-07-23T13:16:38;10.30;;;9.70;;
1987;SDS011;12775;46.994;15.498;2022-07-23T13:19:04;10.58;;;9.88;;
1987;SDS011;12775;46.994;15.498;2022-07-23T13:21:31;11.70;;;10.66;;
1987;SDS011;12775;46.994;15.498;2022-07-23T13:23:57;10.90;;;10.20;;
1987;SDS011;12775;46.994;15.498;2022-07-23T13:26:24;11.06;;;10.20;;
1987;SDS011;12775;46.994;15.498;2022-07-23T13:28:51;10.20;;;9.50;;
1987;SDS011;12775;46.994;15.498;2022-07-23T13:31:17;11.68;;;10.58;;
1987;SDS011;12775;46.994;15.498;2022-07-23T13:33:44;10.44;;;9.64;;
1987;SDS011;12775;46.994;15.498;2022-07-23T13:36:10;10.56;;;9.86;;
1987;SDS011;12775;46.994;15.498;2022-07-23T13:38:37;11.30;;;10.46;;
1987;SDS011;12775;46.994;15.498;2022-07-23T13:41:04;9.84;;;9.04;;
1987;SDS011;12775;46.994;15.498;2022-07-23T13:43:31;11.20;;;10.50;;
1987;SDS011;12775;46.994;15.498;2022-07-23T13:45:57;9.54;;;8.60;;
1987;SDS011;12775;46.994;15.498;2022-07-23T13:48:23;11.34;;;10.48;;
1987;SDS011;12775;46.994;15.498;2022-07-23T13:50:50;10.12;;;9.42;;
1987;SDS011;12775;46.994;15.498;2022-07-23T13:53:18;9.88;;;9.18;;
1987;SDS011;12775;46.994;15.498;2022-07-23T13:55:44;10.34;;;9.50;;
1987;SDS011;12775;46.994;15.498;2022-07-23T13:58:11;10.02;;;9.42;;
1987;SDS011;12775;46.994;15.498;2022-07-23T14:00:38;12.42;;;11.58;;
1987;SDS011;12775;46.994;15.498;2022-07-23T14:03:04;10.24;;;9.48;;
1987;SDS011;12775;46.994;15.498;2022-07-23T14:05:31;10.96;;;10.26;;
1987;SDS011;12775;46.994;15.498;2022-07-23T14:07:57;10.14;;;9.38;;
1987;SDS011;12775;46.994;15.498;2022-07-23T14:10:24;10.74;;;9.94;;
1987;SDS011;12775;46.994;15.498;2022-07-23T14:12:51;10.00;;;9.28;;
1987;SDS011;12775;46.994;15.498;2022-07-23T14:15:17;10.44;;;9.78;;
1987;SDS011;12775;46.994;15.498;2022-07-23T14:17:44;10.46;;;9.76;;
1987;SDS011;12775;46.994;15.498;2022-07-23T14:20:10;9.50;;;8.78;;
1987;SDS011;12775;46.994;15.498;2022-07-23T14:22:37;10.58;;;9.78;;
1987;SDS011;12775;46.994;15.498;2022-07-23T14:25:04;9.26;;;8.66;;
1987;SDS011;12775;46.994;15.498;2022-07-23T14:27:31;9.26;;;8.64;;
1987;SDS011;12775;46.994;15.498;2022-07-23T14:29:57;10.36;;;9.50;;
1987;SDS011;12775;46.994;15.498;2022-07-23T14:32:24;10.38;;;9.68;;
1987;SDS011;12775;46.994;15.498;2022-07-23T14:34:50;10.64;;;9.94;;
1987;SDS011;12775;46.994;15.498;2022-07-23T14:37:17;9.06;;;8.32;;
1987;SDS011;12775;46.994;15.498;2022-07-23T14:39:44;9.98;;;9.18;;
1987;SDS011;12775;46.994;15.498;2022-07-23T14:42:11;9.56;;;8.86;;
1987;SDS011;12775;46.994;15.498;2022-07-23T14:44:38;10.38;;;9.58;;
1987;SDS011;12775;46.994;15.498;2022-07-23T14:47:05;9.60;;;8.92;;
1987;SDS011;12775;46.994;15.498;2022-07-23T14:49:31;10.12;;;9.40;;
1987;SDS011;12775;46.994;15.498;2022-07-23T14:51:57;9.58;;;9.08;;
1987;SDS011;12775;46.994;15.498;2022-07-23T14:54:24;11.54;;;10.78;;
1987;SDS011;12775;46.994;15.498;2022-07-23T14:56:51;10.44;;;9.74;;
1987;SDS011;12775;46.994;15.498;2022-07-23T14:59:17;9.92;;;9.22;;
1987;SDS011;12775;46.994;15.498;2022-07-23T15:01:45;9.98;;;9.20;;
1987;SDS011;12775;46.994;15.498;2022-07-23T15:04:11;9.24;;;8.64;;
1987;SDS011;12775;46.994;15.498;2022-07-23T15:06:38;9.64;;;8.94;;
1987;SDS011;12775;46.994;15.498;2022-07-23T15:09:05;10.10;;;9.40;;
1987;SDS011;12775;46.994;15.498;2022-07-23T15:11:31;11.44;;;10.54;;
1987;SDS011;12775;46.994;15.498;2022-07-23T15:13:58;9.68;;;8.80;;